createdAt,value
2023-04-21T00:03:41.970Z,99856.06
2023-04-21T00:08:43.689Z,99856.75
2023-04-21T00:13:45.319Z,99858.25
2023-04-21T00:18:48.010Z,99855.63
2023-04-21T00:23:50.133Z,99865.44
2023-04-21T00:28:51.978Z,99855.28
2023-04-21T00:33:54.134Z,99852.69
2023-04-21T00:38:57.362Z,99859.34
2023-04-21T00:44:09.457Z,99855.19
2023-04-21T00:54:15.009Z,99862.41
2023-04-21T00:59:18.187Z,99873.88
2023-04-21T01:04:20.079Z,99864.44
2023-04-21T01:09:22.064Z,99868.41
2023-04-21T01:14:23.871Z,99866.59
2023-04-21T01:19:28.633Z,99869.13
2023-04-21T01:24:44.774Z,99857.22
2023-04-21T01:29:49.806Z,99849.59
2023-04-21T01:34:52.082Z,99853.59
2023-04-21T01:39:55.618Z,99847.72
2023-04-21T01:44:57.729Z,99855.91
2023-04-21T01:49:59.602Z,99847.38
2023-04-21T01:55:01.883Z,99859.97
2023-04-21T02:00:04.960Z,99848.19
2023-04-21T02:05:16.699Z,99863.97
2023-04-21T02:10:18.647Z,99865.63
2023-04-21T02:15:20.284Z,99847.31
2023-04-21T02:20:21.967Z,99856.34
2023-04-21T02:25:23.576Z,99856.34
2023-04-21T02:30:25.188Z,99861.44
2023-04-21T02:35:27.212Z,99859.56
2023-04-21T02:40:29.012Z,99862.88
2023-04-21T02:45:30.752Z,99861.94
2023-04-21T02:50:32.388Z,99864.28
2023-04-21T02:55:34.339Z,99858.84
2023-04-21T03:00:37.786Z,99854.50
2023-04-21T03:05:39.415Z,99858.59
2023-04-21T03:10:41.605Z,99860.13
2023-04-21T03:15:43.757Z,99859.06
2023-04-21T03:20:45.456Z,99861.50
2023-04-21T03:25:47.093Z,99862.19
2023-04-21T03:30:48.708Z,99861.19
2023-04-21T03:35:50.294Z,99865.25
2023-04-21T03:40:51.880Z,99860.94
2023-04-21T03:45:53.868Z,99857.47
2023-04-21T03:50:55.741Z,99856.41
2023-04-21T03:55:57.458Z,99873.13
2023-04-21T04:00:59.076Z,99866.41
2023-04-21T04:06:01.237Z,99873.91
2023-04-21T04:11:03.094Z,99879.78
2023-04-21T04:16:05.404Z,99892.25
2023-04-21T04:21:07.692Z,99884.69
2023-04-21T04:26:09.498Z,99886.34
2023-04-21T04:31:11.277Z,99901.66
2023-04-21T04:36:13.005Z,99901.81
2023-04-21T04:41:15.843Z,99898.59
2023-04-21T04:46:17.555Z,99903.00
2023-04-21T04:51:19.136Z,99910.28
2023-04-21T04:56:21.013Z,99911.41
2023-04-21T05:01:25.965Z,99908.06
2023-04-21T05:06:28.515Z,99920.09
2023-04-21T05:11:30.216Z,99920.28
2023-04-21T05:16:31.905Z,99920.06
2023-04-21T05:21:33.732Z,99923.47
2023-04-21T05:26:35.486Z,99919.66
2023-04-21T05:31:39.019Z,99926.34
2023-04-21T05:36:44.210Z,99917.97
2023-04-21T05:41:45.932Z,99922.19
2023-04-21T05:46:47.506Z,99920.84
2023-04-21T05:51:49.160Z,99931.78
2023-04-21T05:56:50.894Z,99933.97
2023-04-21T06:01:52.497Z,99933.53
2023-04-21T06:06:54.118Z,99935.72
2023-04-21T06:11:56.949Z,99942.81
2023-04-21T06:16:58.926Z,99946.75
2023-04-21T06:22:00.510Z,99939.84
2023-04-21T06:27:02.144Z,99950.16
2023-04-21T06:32:04.071Z,99936.25
2023-04-21T06:37:06.113Z,99936.69
2023-04-21T06:42:07.827Z,99931.09
2023-04-21T06:47:17.222Z,99917.81
2023-04-21T06:52:20.208Z,99918.69
2023-04-21T06:57:21.957Z,99915.25
2023-04-21T07:02:23.786Z,99924.16
2023-04-21T07:07:26.175Z,99931.47
2023-04-21T07:12:27.873Z,99939.16
2023-04-21T07:17:29.560Z,99935.38
2023-04-21T07:22:31.566Z,99943.97
2023-04-21T07:27:34.193Z,99935.69
2023-04-21T07:32:37.576Z,99932.38
2023-04-21T07:37:40.741Z,99934.13
2023-04-21T07:42:42.372Z,99935.03
2023-04-21T07:47:44.231Z,99941.78
2023-04-21T07:52:46.039Z,99939.25
2023-04-21T07:57:47.909Z,99937.56
2023-04-21T08:02:49.619Z,99934.09
2023-04-21T08:07:51.403Z,99934.00
2023-04-21T08:12:53.052Z,99947.94
2023-04-21T08:17:55.065Z,99936.78
2023-04-21T08:22:57.951Z,99929.47
2023-04-21T08:27:59.673Z,99926.25
2023-04-21T08:33:01.398Z,99921.50
2023-04-21T08:38:03.194Z,99907.09
2023-04-21T08:43:08.719Z,99905.75
2023-04-21T08:48:16.590Z,99898.88
2023-04-21T08:53:18.260Z,99887.38
2023-04-21T08:58:22.741Z,99894.56
2023-04-21T09:03:27.048Z,99880.19
2023-04-21T09:08:30.457Z,99886.97
2023-04-21T09:13:34.289Z,99881.88
2023-04-21T09:18:40.120Z,99874.41
2023-04-21T09:23:43.675Z,99872.16
2023-04-21T09:28:48.356Z,99868.34
2023-04-21T09:34:01.153Z,99864.97
2023-04-21T09:44:09.221Z,99856.00
2023-04-21T09:49:13.879Z,99858.00
2023-04-21T09:54:29.672Z,99840.94
2023-04-21T09:59:37.029Z,99839.84
2023-04-21T10:04:42.285Z,99831.72
2023-04-21T10:09:57.618Z,99841.84
2023-04-21T10:15:03.442Z,99825.22
2023-04-21T10:20:07.072Z,99825.16
2023-04-21T10:25:10.158Z,99820.66
2023-04-21T10:30:29.138Z,99815.09
2023-04-21T10:36:04.714Z,99820.38
2023-04-21T10:41:31.052Z,99806.28
2023-04-21T10:46:36.696Z,99804.41
2023-04-21T10:52:00.169Z,99804.44
2023-04-21T10:57:02.099Z,99807.16
2023-04-21T11:07:16.480Z,99796.41
2023-04-21T11:12:18.918Z,99783.47
2023-04-21T11:17:21.506Z,99785.44
2023-04-21T11:22:25.217Z,99780.28
2023-04-21T11:27:29.169Z,99770.91
2023-04-21T11:32:31.101Z,99773.56
2023-04-21T11:37:32.791Z,99763.59
2023-04-21T11:42:34.647Z,99754.34
2023-04-21T11:47:37.594Z,99754.75
2023-04-21T11:52:39.694Z,99758.03
2023-04-21T11:57:41.674Z,99750.91
2023-04-21T12:02:43.812Z,99742.44
2023-04-21T12:07:51.915Z,99751.84
2023-04-21T12:12:56.329Z,99739.09
2023-04-21T12:17:58.085Z,99731.19
2023-04-21T12:23:01.038Z,99736.88
2023-04-21T12:28:02.807Z,99727.19
2023-04-21T12:33:04.711Z,99721.88
2023-04-21T12:38:06.547Z,99721.84
2023-04-21T12:43:08.312Z,99712.97
2023-04-21T12:48:10.187Z,99713.81
2023-04-21T12:53:11.928Z,99704.44
2023-04-21T12:58:15.628Z,99700.75
2023-04-21T13:03:17.424Z,99697.84
2023-04-21T13:08:19.179Z,99697.50
2023-04-21T13:13:20.860Z,99689.09
2023-04-21T13:18:22.837Z,99683.34
2023-04-21T13:23:24.495Z,99678.28
2023-04-21T13:28:26.777Z,99674.44
2023-04-21T13:33:28.545Z,99671.41
2023-04-21T13:38:30.888Z,99662.38
2023-04-21T13:43:32.612Z,99658.88
2023-04-21T13:48:34.268Z,99657.91
2023-04-21T13:53:36.211Z,99640.31
2023-04-21T13:58:38.018Z,99642.94
2023-04-21T14:03:39.964Z,99638.22
2023-04-21T14:08:42.003Z,99622.41
2023-04-21T14:13:59.546Z,99609.63
2023-04-21T14:19:05.300Z,99611.25
2023-04-21T14:24:07.580Z,99610.34
2023-04-21T14:29:09.222Z,99608.06
2023-04-21T14:34:11.061Z,99616.97
2023-04-21T14:39:12.961Z,99602.06
2023-04-21T14:44:15.747Z,99599.97
2023-04-21T14:49:17.651Z,99593.25
2023-04-21T14:54:19.231Z,99589.50
2023-04-21T14:59:20.968Z,99583.22
2023-04-21T15:04:22.916Z,99585.44
2023-04-21T15:09:25.245Z,99576.56
2023-04-21T15:14:26.998Z,99576.31
2023-04-21T15:19:28.695Z,99572.34
2023-04-21T15:24:30.523Z,99573.91
2023-04-21T15:29:32.239Z,99578.88
2023-04-21T15:34:34.051Z,99579.53
2023-04-21T15:39:35.781Z,99580.88
2023-04-21T15:44:39.102Z,99574.91
2023-04-21T15:49:40.765Z,99568.91
2023-04-21T15:54:46.020Z,99571.13
2023-04-21T15:59:47.754Z,99567.81
2023-04-21T16:04:49.709Z,99562.72
2023-04-21T16:09:51.596Z,99557.19
2023-04-21T16:14:59.633Z,99559.06
2023-04-21T16:20:09.323Z,99562.41
2023-04-21T16:25:13.817Z,99570.41
2023-04-21T16:30:15.888Z,99561.56
2023-04-21T16:35:17.682Z,99566.63
2023-04-21T16:40:19.597Z,99568.53
2023-04-21T16:45:21.416Z,99568.75
2023-04-21T16:50:23.640Z,99559.31
2023-04-21T16:55:25.343Z,99564.66
2023-04-21T17:00:27.386Z,99570.63
2023-04-21T17:05:30.463Z,99564.97
2023-04-21T17:10:32.182Z,99571.09
2023-04-21T17:15:34.216Z,99574.66
2023-04-21T17:20:36.726Z,99581.75
2023-04-21T17:25:38.714Z,99578.56
2023-04-21T17:30:40.312Z,99583.94
2023-04-21T17:35:55.864Z,99574.91
2023-04-21T17:41:06.694Z,99578.56
2023-04-21T17:46:08.581Z,99582.25
2023-04-21T17:51:11.042Z,99581.63
2023-04-21T17:56:14.573Z,99578.53
2023-04-21T18:01:17.020Z,99581.44
2023-04-21T18:06:18.851Z,99588.53
2023-04-21T18:11:20.545Z,99597.28
2023-04-21T18:16:22.489Z,99595.03
2023-04-21T18:21:24.396Z,99603.78
2023-04-21T18:26:26.653Z,99608.31
2023-04-21T18:31:29.797Z,99612.84
2023-04-21T18:36:33.458Z,99622.41
2023-04-21T18:41:37.272Z,99623.53
2023-04-21T18:46:38.968Z,99630.50
2023-04-21T18:51:40.756Z,99629.84
2023-04-21T18:56:42.418Z,99634.28
2023-04-21T19:01:44.351Z,99630.22
2023-04-21T19:06:46.198Z,99632.03
2023-04-21T19:11:47.901Z,99635.59
2023-04-21T19:16:51.831Z,99630.72
2023-04-21T19:21:53.584Z,99635.13
2023-04-21T19:26:55.867Z,99631.84
2023-04-21T19:31:58.349Z,99636.16
2023-04-21T19:37:00.469Z,99627.81
2023-04-21T19:42:02.061Z,99635.50
2023-04-21T19:47:03.784Z,99636.44
2023-04-21T19:52:05.998Z,99629.00
2023-04-21T19:57:07.698Z,99635.84
2023-04-21T20:02:09.632Z,99640.94
2023-04-21T20:07:11.517Z,99643.53
2023-04-21T20:12:13.146Z,99641.91
2023-04-21T20:17:14.727Z,99639.44
2023-04-21T20:22:16.350Z,99640.34
2023-04-21T20:27:18.493Z,99641.19
2023-04-21T20:32:20.265Z,99649.63
2023-04-21T20:37:23.385Z,99652.19
2023-04-21T20:42:25.414Z,99653.03
2023-04-21T20:47:27.031Z,99660.63
2023-04-21T20:52:28.666Z,99655.56
2023-04-21T20:57:30.707Z,99658.09
2023-04-21T21:02:32.449Z,99654.72
2023-04-21T21:07:34.290Z,99656.38
2023-04-21T21:12:35.932Z,99654.69
2023-04-21T21:17:37.690Z,99656.38
2023-04-21T21:22:39.363Z,99659.75
2023-04-21T21:27:41.047Z,99667.28
2023-04-21T21:32:42.756Z,99674.78
2023-04-21T21:37:44.469Z,99678.03
2023-04-21T21:42:46.054Z,99675.53
2023-04-21T21:47:47.756Z,99673.81
2023-04-21T21:52:49.493Z,99684.66
2023-04-21T21:57:51.221Z,99682.97
2023-04-21T22:02:53.011Z,99680.44
2023-04-21T22:07:56.806Z,99689.66
2023-04-21T22:12:58.485Z,99680.38
2023-04-21T22:18:00.304Z,99683.72
2023-04-21T22:23:02.818Z,99676.94
2023-04-21T22:28:04.750Z,99679.41
2023-04-21T22:33:06.775Z,99679.38
2023-04-21T22:38:08.473Z,99682.69
2023-04-21T22:43:10.173Z,99675.88
2023-04-21T22:48:14.085Z,99680.84
2023-04-21T22:53:15.833Z,99678.31
2023-04-21T22:58:17.481Z,99685.81
2023-04-21T23:03:19.337Z,99702.53
2023-04-21T23:08:21.130Z,99699.88
2023-04-21T23:13:23.072Z,99704.00
2023-04-21T23:18:24.762Z,99701.44
2023-04-21T23:23:26.521Z,99703.88
2023-04-21T23:28:28.172Z,99696.31
2023-04-21T23:33:29.892Z,99686.97
2023-04-21T23:38:31.716Z,99689.47
2023-04-21T23:43:34.579Z,99693.59
2023-04-21T23:48:36.506Z,99689.25
2023-04-21T23:53:38.270Z,99683.38
2023-04-21T23:58:39.885Z,99687.53
